Time;durP1;ratioP1;P1;durP2;ratioP2;P2;SDS_P1;SDS_P2;PMS_P1;PMS_P2;Temp;Humidity;BMP_temperature;BMP_pressure;BME280_temperature;BME280_humidity;BME280_pressure;Samples;Min_cycle;Max_cycle;Signal;HPM_P1;HPM_P2
2022/08/19 00:00:27;;;;;;;;;17.25;16.75;;;;;21.80;56.68;101249.72;6276793;22;45365;-84
2022/08/19 00:02:53;;;;;;;;;15.50;13.50;;;;;21.70;56.69;101237.66;6249598;22;45334;-84
2022/08/19 00:05:20;;;;;;;;;16.00;15.25;;;;;21.73;56.30;101244.69;6277994;22;45433;-83
2022/08/19 00:07:46;;;;;;;;;16.75;14.25;;;;;21.63;56.46;101241.56;6249858;22;45549;-84
2022/08/19 00:10:14;;;;;;;;;13.00;12.75;;;;;21.71;56.68;101252.81;6276911;22;46271;-85
2022/08/19 00:12:40;;;;;;;;;16.50;15.25;;;;;21.67;56.97;101251.19;6252887;22;45903;-85
2022/08/19 00:15:11;;;;;;;;;14.75;13.75;;;;;21.62;57.02;101255.00;6279130;22;45410;-85
2022/08/19 00:17:38;;;;;;;;;12.75;12.50;;;;;21.55;56.95;101249.03;6279185;22;45302;-85
2022/08/19 00:20:05;;;;;;;;;15.75;13.50;;;;;21.59;56.94;101256.00;6281335;22;45500;-84
2022/08/19 00:22:31;;;;;;;;;14.25;14.00;;;;;21.51;57.04;101248.28;6281762;22;45208;-85
2022/08/19 00:24:56;;;;;;;;;14.75;14.75;;;;;21.54;56.96;101255.31;6254189;22;45263;-85
2022/08/19 00:27:22;;;;;;;;;19.50;16.75;;;;;21.51;57.54;101264.34;6281870;22;45192;-84
2022/08/19 00:29:47;;;;;;;;;17.75;15.00;;;;;21.41;57.43;101243.34;6279036;22;45585;-85
2022/08/19 00:32:12;;;;;;;;;12.75;12.25;;;;;21.47;57.60;101259.19;6279305;22;45421;-86
2022/08/19 00:34:38;;;;;;;;;17.75;15.25;;;;;21.39;57.02;101250.59;6279537;22;45448;-84
2022/08/19 00:37:04;;;;;;;;;15.25;14.50;;;;;21.43;57.38;101260.25;6250418;22;45280;-85
2022/08/19 00:39:29;;;;;;;;;16.00;16.00;;;;;21.29;57.50;101242.88;6251774;22;46190;-84
2022/08/19 00:41:56;;;;;;;;;13.25;13.25;;;;;21.26;56.98;101244.84;6251696;22;45865;-84
2022/08/19 00:44:25;;;;;;;;;17.25;15.25;;;;;21.26;57.57;101250.19;6279199;22;45156;-85
2022/08/19 00:46:52;;;;;;;;;14.75;13.25;;;;;21.22;57.68;101254.78;6253676;22;45341;-84
2022/08/19 00:49:24;;;;;;;;;15.00;14.00;;;;;21.28;57.60;101267.94;6281583;22;45380;-83
2022/08/19 00:51:55;;;;;;;;;16.50;15.75;;;;;21.21;57.60;101261.06;6279288;22;45309;-85
2022/08/19 00:54:21;;;;;;;;;17.50;14.50;;;;;21.23;58.06;101271.75;6281479;22;45247;-85
2022/08/19 00:56:48;;;;;;;;;15.50;11.25;;;;;21.12;57.82;101256.97;6282091;22;45492;-85
2022/08/19 00:59:15;;;;;;;;;18.25;16.25;;;;;21.06;57.99;101249.19;6281271;22;45511;-86
2022/08/19 01:01:44;;;;;;;;;12.00;10.25;;;;;21.06;58.28;101250.97;6253656;22;45525;-85
2022/08/19 01:04:09;;;;;;;;;14.75;13.50;;;;;21.04;58.34;101252.84;6254142;22;45121;-86
2022/08/19 01:06:40;;;;;;;;;16.25;16.00;;;;;21.09;58.51;101266.91;6254282;22;45346;-85
2022/08/19 01:09:06;;;;;;;;;15.50;14.00;;;;;21.08;58.48;101268.72;6254405;22;47931;-86
2022/08/19 01:11:36;;;;;;;;;15.50;14.50;;;;;20.95;58.14;101250.50;6258447;22;45366;-85
2022/08/19 01:14:02;;;;;;;;;18.25;16.50;;;;;20.96;58.22;101247.78;6290723;22;45309;-84
2022/08/19 01:16:29;;;;;;;;;20.25;16.50;;;;;21.00;57.84;101253.88;6258434;22;45220;-84
2022/08/19 01:18:56;;;;;;;;;17.00;14.00;;;;;20.93;58.51;101240.75;6254364;22;48081;-86
2022/08/19 01:21:31;;;;;;;;;16.25;13.75;;;;;20.91;58.52;101231.91;6279578;22;45460;-84
2022/08/19 01:23:56;;;;;;;;;19.75;18.25;;;;;21.05;58.42;101259.94;6281194;22;45390;-86
2022/08/19 01:26:24;;;;;;;;;13.25;13.25;;;;;21.05;59.12;101259.94;6281809;22;45304;-85
2022/08/19 01:28:53;;;;;;;;;16.50;15.50;;;;;20.92;58.78;101244.34;6281291;22;45413;-84
2022/08/19 01:31:23;;;;;;;;;15.50;14.00;;;;;20.96;58.88;101254.97;6253309;22;45452;-85
2022/08/19 01:33:51;;;;;;;;;17.75;17.75;;;;;21.01;58.86;101267.22;6253938;22;45264;-85
2022/08/19 01:36:36;;;;;;;;;15.50;14.50;;;;;20.97;58.64;101268.25;6281919;22;45366;-85
2022/08/19 01:39:06;;;;;;;;;14.75;13.50;;;;;20.91;58.66;101255.13;6279332;22;47024;-84
2022/08/19 01:41:32;;;;;;;;;18.25;16.00;;;;;20.96;58.64;101271.00;6281300;22;45391;-86
2022/08/19 01:43:58;;;;;;;;;15.50;15.50;;;;;20.95;58.67;101277.28;6253393;22;45279;-86
2022/08/19 01:46:24;;;;;;;;;20.50;18.75;;;;;20.85;58.63;101264.25;6253507;22;45171;-85
2022/08/19 01:48:49;;;;;;;;;13.25;12.00;;;;;20.87;58.63;101262.38;6254084;22;47090;-84
2022/08/19 01:51:15;;;;;;;;;16.00;14.50;;;;;20.91;58.87;101271.19;6279320;22;45191;-85
2022/08/19 01:53:41;;;;;;;;;14.00;14.00;;;;;20.85;58.85;101271.41;6281522;22;45227;-84
2022/08/19 01:56:08;;;;;;;;;19.50;17.50;;;;;20.74;58.39;101252.22;6281450;22;45464;-85
2022/08/19 01:58:38;;;;;;;;;16.25;14.25;;;;;20.67;58.63;101256.94;6281379;22;46379;-84
2022/08/19 02:01:05;;;;;;;;;14.75;13.00;;;;;20.67;58.85;101265.81;6252862;22;45464;-85
2022/08/19 02:03:31;;;;;;;;;14.25;14.25;;;;;20.64;58.73;101271.28;6280854;22;45171;-85
2022/08/19 02:05:59;;;;;;;;;16.75;16.75;;;;;20.69;59.05;101284.50;6281249;22;45219;-86
2022/08/19 02:08:27;;;;;;;;;16.25;16.25;;;;;20.61;58.92;101274.09;6278418;22;47701;-86
2022/08/19 02:10:53;;;;;;;;;12.00;11.50;;;;;20.53;59.08;101268.13;6281244;22;45369;-86
2022/08/19 02:13:19;;;;;;;;;18.00;14.50;;;;;20.56;59.14;101281.41;6253617;22;45412;-85
2022/08/19 02:15:45;;;;;;;;;16.00;14.00;;;;;20.51;59.27;101271.78;6253297;22;45456;-85
2022/08/19 02:18:13;;;;;;;;;17.75;15.50;;;;;20.43;59.36;101259.53;6281861;22;46325;-85
2022/08/19 02:20:40;;;;;;;;;20.50;18.25;;;;;20.35;59.40;101258.94;6253349;22;46279;-85
2022/08/19 02:23:07;;;;;;;;;14.00;12.75;;;;;20.39;59.57;101268.59;6253429;22;45405;-85
2022/08/19 02:25:32;;;;;;;;;14.50;13.25;;;;;20.34;59.38;101259.91;6253522;22;46041;-85
2022/08/19 02:27:58;;;;;;;;;15.75;15.75;;;;;20.47;59.75;101271.00;6281131;22;45454;-85
2022/08/19 02:30:24;;;;;;;;;18.25;16.25;;;;;20.44;59.72;101265.75;6281325;22;45327;-84
2022/08/19 02:32:50;;;;;;;;;17.50;16.00;;;;;20.55;59.94;101279.63;6253793;22;45177;-86
2022/08/19 02:35:17;;;;;;;;;20.25;19.75;;;;;20.42;60.15;101259.59;6253329;22;45685;-85
2022/08/19 02:40:29;;;;;;;;;15.00;14.50;;;;;20.49;60.04;101282.53;6281478;22;45147;-86
2022/08/19 02:42:55;;;;;;;;;15.25;13.75;;;;;20.41;60.12;101263.19;6253616;22;45436;-86
2022/08/19 02:45:20;;;;;;;;;14.00;13.50;;;;;20.48;60.00;101276.31;6253522;22;45255;-85
2022/08/19 02:47:46;;;;;;;;;17.75;17.00;;;;;20.41;60.28;101263.19;6253385;22;47030;-85
2022/08/19 02:50:12;;;;;;;;;15.50;14.50;;;;;20.43;60.30;101272.91;6254005;22;45345;-86
2022/08/19 02:52:38;;;;;;;;;15.25;15.00;;;;;20.47;60.60;101287.94;6254214;22;45374;-86
2022/08/19 02:55:05;;;;;;;;;15.25;14.75;;;;;20.35;60.57;101264.31;6253667;22;45407;-86
2022/08/19 02:57:31;;;;;;;;;18.00;18.00;;;;;20.37;60.46;101273.16;6253678;22;47439;-85
2022/08/19 02:59:57;;;;;;;;;15.00;15.00;;;;;20.24;60.64;101270.03;6280890;22;45184;-86
2022/08/19 03:02:23;;;;;;;;;18.00;15.75;;;;;20.19;60.78;101263.97;6280553;22;45185;-85
2022/08/19 03:04:48;;;;;;;;;16.75;15.00;;;;;20.16;60.63;101258.75;6279325;22;45170;-84
2022/08/19 03:07:15;;;;;;;;;19.25;17.25;;;;;20.30;60.93;101286.78;6280922;22;45370;-85
2022/08/19 03:09:42;;;;;;;;;21.50;20.00;;;;;20.30;60.99;101286.78;6253479;22;45880;-85
2022/08/19 03:12:08;;;;;;;;;21.00;18.50;;;;;20.26;61.55;101284.22;6280949;22;45283;-86
2022/08/19 03:14:33;;;;;;;;;19.75;16.50;;;;;20.34;61.13;101302.69;6281080;22;45431;-85
2022/08/19 03:16:59;;;;;;;;;15.25;14.25;;;;;20.34;61.24;101291.97;6253156;22;47379;-85
2022/08/19 03:19:25;;;;;;;;;15.50;14.75;;;;;20.28;61.27;101293.03;6281359;22;45172;-85
2022/08/19 03:21:51;;;;;;;;;18.75;15.50;;;;;20.26;61.30;101272.63;6281533;22;45151;-86
2022/08/19 03:24:19;;;;;;;;;14.00;14.00;;;;;20.30;61.19;101270.75;6254564;22;45204;-84
2022/08/19 03:26:47;;;;;;;;;16.50;15.50;;;;;20.31;61.37;101273.34;6253082;22;47670;-85
2022/08/19 03:29:13;;;;;;;;;18.50;18.50;;;;;20.25;61.30;101269.09;6280748;22;45361;-85
2022/08/19 03:31:42;;;;;;;;;16.75;15.75;;;;;20.35;61.27;101284.81;6281584;22;45160;-86
2022/08/19 03:34:08;;;;;;;;;19.00;16.50;;;;;20.37;61.46;101283.84;6283823;22;45168;-84
2022/08/19 03:36:34;;;;;;;;;18.25;15.50;;;;;20.40;61.49;101280.19;6254779;22;47066;-84
2022/08/19 03:39:00;;;;;;;;;15.25;15.25;;;;;20.42;61.67;101278.31;6281811;22;45331;-85
2022/08/19 03:41:32;;;;;;;;;19.25;17.00;;;;;20.42;61.53;101276.53;6281231;22;45278;-86
2022/08/19 03:43:58;;;;;;;;;18.00;15.75;;;;;20.47;61.56;101281.69;6253200;22;45336;-86
2022/08/19 03:46:27;;;;;;;;;16.75;15.00;;;;;20.50;61.38;101281.56;6279948;22;45345;-86
2022/08/19 03:48:56;;;;;;;;;13.50;13.50;;;;;20.42;61.81;101264.94;6253010;22;45306;-86
2022/08/19 03:51:27;;;;;;;;;14.75;14.25;;;;;20.50;61.71;101270.88;6253522;22;45236;-86
2022/08/19 03:53:54;;;;;;;;;16.50;15.50;;;;;20.48;61.40;101267.41;6253309;22;45836;-86
2022/08/19 03:56:20;;;;;;;;;12.00;12.00;;;;;20.55;61.34;101287.66;6280552;22;45479;-86
2022/08/19 03:58:46;;;;;;;;;18.00;18.00;;;;;20.53;61.35;101278.81;6253289;22;45183;-86
2022/08/19 04:01:15;;;;;;;;;11.00;10.25;;;;;20.50;61.77;101273.56;6280865;22;45386;-87
2022/08/19 04:03:40;;;;;;;;;18.50;15.75;;;;;20.51;61.61;101269.97;6280657;22;45321;-86
2022/08/19 04:06:18;;;;;;;;;15.00;13.00;;;;;20.58;61.64;101278.66;6280909;22;45290;-86
2022/08/19 04:08:45;;;;;;;;;11.00;10.00;;;;;20.47;61.70;101260.28;6279000;22;45228;-86
2022/08/19 04:11:23;;;;;;;;;15.25;13.75;;;;;20.49;61.49;101267.34;6253222;22;45157;-85
2022/08/19 04:13:50;;;;;;;;;14.00;12.50;;;;;20.52;61.41;101266.34;6280939;22;45317;-86
2022/08/19 04:16:19;;;;;;;;;13.75;11.75;;;;;20.45;61.59;101257.69;6252801;22;47175;-85
2022/08/19 04:18:46;;;;;;;;;13.50;11.25;;;;;20.58;61.27;101284.00;6252976;22;45892;-85
2022/08/19 04:21:18;;;;;;;;;11.00;11.00;;;;;20.52;61.27;101260.13;6280886;22;45096;-86
2022/08/19 04:23:44;;;;;;;;;14.50;10.75;;;;;20.57;61.51;101269.75;6252699;22;45433;-86
2022/08/19 04:26:20;;;;;;;;;11.75;11.75;;;;;20.55;60.93;101268.94;6278279;22;46877;-85
2022/08/19 04:28:46;;;;;;;;;13.50;11.50;;;;;20.51;61.56;101263.75;6278673;22;45280;-86
2022/08/19 04:31:16;;;;;;;;;13.25;12.50;;;;;20.56;61.66;101276.06;6252733;22;45231;-86
2022/08/19 04:33:42;;;;;;;;;11.75;10.75;;;;;20.48;61.36;101270.94;6252829;22;45366;-84
2022/08/19 04:36:16;;;;;;;;;11.75;10.00;;;;;20.55;61.33;101276.09;6280142;22;45402;-86
2022/08/19 04:38:42;;;;;;;;;11.75;11.00;;;;;20.54;61.45;101283.25;6252316;22;45759;-85
2022/08/19 04:43:51;;;;;;;;;14.00;13.00;;;;;20.51;61.39;101283.34;6280013;22;45377;-86
2022/08/19 04:46:17;;;;;;;;;10.00;9.75;;;;;20.54;61.61;101283.25;6279709;22;46299;-86
2022/08/19 04:48:43;;;;;;;;;12.00;11.00;;;;;20.50;61.44;101270.88;6277777;22;45394;-84
2022/08/19 04:51:13;;;;;;;;;8.75;8.00;;;;;20.49;61.03;101278.03;6280311;22;45385;-85
2022/08/19 04:53:41;;;;;;;;;9.00;9.00;;;;;20.61;61.68;101298.16;6252546;22;45394;-86
2022/08/19 04:56:11;;;;;;;;;9.00;8.33;;;;;20.63;61.73;101298.97;6279833;22;45367;-85
2022/08/19 04:58:39;;;;;;;;;9.75;8.50;;;;;20.64;61.64;101306.06;6281255;22;45210;-86
2022/08/19 05:01:05;;;;;;;;;9.00;7.33;;;;;20.65;61.42;101304.28;6280652;22;45262;-85
2022/08/19 05:03:33;;;;;;;;;11.67;8.67;;;;;20.64;61.32;101298.06;6253987;22;45298;-85
2022/08/19 05:06:10;;;;;;;;;10.00;9.00;;;;;20.70;61.21;101305.84;6281469;22;45322;-85
2022/08/19 05:08:37;;;;;;;;;10.33;8.00;;;;;20.69;60.96;101305.91;6253721;22;45227;-85
2022/08/19 05:11:09;;;;;;;;;7.33;6.67;;;;;20.68;61.38;101306.81;6253492;22;45141;-86
2022/08/19 05:13:34;;;;;;;;;8.00;6.00;;;;;20.68;61.03;101306.81;6278491;22;46183;-85
2022/08/19 05:15:59;;;;;;;;;8.33;6.00;;;;;20.63;61.34;101300.78;6253506;22;48168;-85
2022/08/19 05:23:57;;;;;;;;;10.33;8.67;;;;;20.69;61.37;101317.50;6280957;22;45156;-86
2022/08/19 05:26:22;;;;;;;;;8.33;7.00;;;;;20.64;61.38;101302.53;6253911;22;47356;-86
2022/08/19 05:28:47;;;;;;;;;13.33;8.67;;;;;20.61;61.29;101306.19;6254094;22;45303;-85
2022/08/19 05:31:13;;;;;;;;;6.00;6.00;;;;;20.61;61.18;101305.28;6280129;22;45776;-86
2022/08/19 05:33:39;;;;;;;;;6.67;5.67;;;;;20.62;61.67;101307.94;6281886;22;45200;-86
2022/08/19 05:36:07;;;;;;;;;6.00;5.33;;;;;20.62;61.47;101318.63;6282016;22;46146;-86
2022/08/19 05:38:33;;;;;;;;;7.00;6.00;;;;;20.67;61.31;101322.00;6253884;22;45384;-87
2022/08/19 05:40:59;;;;;;;;;5.67;5.00;;;;;20.62;61.45;101307.06;6281842;22;45279;-86
2022/08/19 05:43:25;;;;;;;;;7.00;7.00;;;;;20.62;61.37;101312.41;6252759;22;45374;-86
2022/08/19 05:45:51;;;;;;;;;7.67;5.00;;;;;20.63;61.77;101314.16;6279188;22;47359;-82
2022/08/19 05:48:20;;;;;;;;;4.00;4.00;;;;;20.67;61.84;101323.81;6277809;22;45290;-83
2022/08/19 05:50:46;;;;;;;;;7.00;5.67;;;;;20.61;61.85;101316.00;6279334;22;45384;-84
2022/08/19 05:53:12;;;;;;;;;7.00;6.00;;;;;20.70;61.59;101326.38;6251509;22;45389;-82
2022/08/19 05:55:38;;;;;;;;;4.33;4.33;;;;;20.63;61.66;101315.00;6278743;22;46047;-84
2022/08/19 05:58:05;;;;;;;;;10.00;7.00;;;;;20.66;61.80;101312.25;6277306;22;45379;-82
2022/08/19 06:00:31;;;;;;;;;6.00;6.00;;;;;20.72;62.03;101326.34;6251729;22;45137;-86
2022/08/19 06:03:02;;;;;;;;;6.00;6.00;;;;;20.59;61.97;101302.69;6254368;22;45861;-83
2022/08/19 06:05:31;;;;;;;;;6.00;6.00;;;;;20.70;62.12;101323.72;6282088;22;46072;-85
2022/08/19 06:07:58;;;;;;;;;5.00;5.00;;;;;20.63;61.99;101316.81;6279406;22;45204;-83
2022/08/19 06:10:25;;;;;;;;;7.00;7.00;;;;;20.63;62.11;101306.13;6279436;22;45270;-83
2022/08/19 06:12:51;;;;;;;;;6.33;6.33;;;;;20.82;62.34;101342.00;6251325;22;45944;-83
2022/08/19 06:15:16;;;;;;;;;6.00;6.00;;;;;20.78;62.23;101331.47;6278551;22;45367;-83
2022/08/19 06:17:44;;;;;;;;;5.33;5.33;;;;;20.78;62.25;101326.09;6278699;22;45299;-83
2022/08/19 06:20:13;;;;;;;;;7.00;6.00;;;;;20.86;62.34;101335.59;6279212;22;45278;-83
2022/08/19 06:22:43;;;;;;;;;7.67;6.00;;;;;20.93;62.16;101336.25;6278526;22;45354;-83
2022/08/19 06:25:10;;;;;;;;;6.67;6.00;;;;;20.87;62.06;101323.94;6250887;22;47105;-83
2022/08/19 06:27:36;;;;;;;;;5.67;5.00;;;;;21.00;61.93;101345.78;6278960;22;45193;-82
2022/08/19 06:30:03;;;;;;;;;6.33;5.00;;;;;20.91;61.97;101333.63;6278712;22;45238;-82
2022/08/19 06:32:28;;;;;;;;;6.00;6.00;;;;;20.95;62.08;101352.22;6250709;22;45180;-83
2022/08/19 06:34:54;;;;;;;;;9.00;5.00;;;;;20.96;61.96;101346.84;6278533;22;45912;-83
2022/08/19 06:37:21;;;;;;;;;5.33;5.33;;;;;21.00;62.31;101343.09;6276959;22;45345;-83
2022/08/19 06:39:47;;;;;;;;;5.33;5.00;;;;;21.03;62.02;101339.44;6276684;22;45482;-81
2022/08/19 06:42:16;;;;;;;;;5.33;4.33;;;;;21.08;62.10;101341.00;6278507;22;45257;-82
2022/08/19 06:44:43;;;;;;;;;5.00;4.67;;;;;21.06;61.97;101333.97;6276241;22;46511;-85
2022/08/19 06:47:11;;;;;;;;;4.67;4.33;;;;;21.22;61.75;101353.00;6278511;22;45189;-84
2022/08/19 06:49:37;;;;;;;;;5.00;5.00;;;;;21.18;61.95;101336.19;6250751;22;45380;-88
2022/08/19 06:52:04;;;;;;;;;4.00;3.67;;;;;21.30;61.91;101361.59;6251217;22;45446;-86
2022/08/19 06:54:29;;;;;;;;;5.00;5.00;;;;;21.25;61.95;101345.75;6250845;22;47369;-86
2022/08/19 06:56:56;;;;;;;;;8.00;7.00;;;;;21.38;61.89;101354.19;6251134;22;45121;-86
2022/08/19 06:59:27;;;;;;;;;8.00;8.00;;;;;21.36;61.45;101337.28;6251213;22;45284;-84
2022/08/19 07:01:55;;;;;;;;;8.50;7.50;;;;;21.46;61.49;101364.59;6278076;22;45224;-84
2022/08/19 07:04:24;;;;;;;;;7.00;5.00;;;;;21.40;61.32;101348.78;6250667;22;47007;-85
2022/08/19 07:07:00;;;;;;;;;5.67;4.67;;;;;21.41;61.74;101355.88;6276576;22;45489;-85
2022/08/19 07:09:26;;;;;;;;;3.00;3.00;;;;;21.49;61.55;101369.84;6250665;22;45372;-84
2022/08/19 07:11:53;;;;;;;;;4.00;4.00;;;;;21.55;61.66;101372.28;6250799;22;45468;-84
2022/08/19 07:14:22;;;;;;;;;2.67;2.67;;;;;21.45;61.61;101354.81;6277987;22;45398;-84
2022/08/19 07:16:49;;;;;;;;;3.00;3.00;;;;;21.52;61.78;101359.03;6249841;22;45641;-84
2022/08/19 07:19:15;;;;;;;;;3.00;3.00;;;;;21.57;61.50;101367.72;6278672;22;45448;-84
2022/08/19 07:21:41;;;;;;;;;3.33;2.00;;;;;21.50;61.40;101353.72;6278299;22;45338;-85
2022/08/19 07:24:07;;;;;;;;;3.00;2.00;;;;;21.49;61.47;101346.63;6278103;22;45386;-85
2022/08/19 07:26:38;;;;;;;;;1.67;1.67;;;;;21.52;61.69;101362.56;6275988;22;45267;-84
2022/08/19 07:29:05;;;;;;;;;2.00;2.00;;;;;21.51;61.55;101354.56;6278524;22;45411;-84
2022/08/19 07:31:31;;;;;;;;;3.00;1.00;;;;;21.54;61.85;101365.16;6250208;22;45526;-84
2022/08/19 07:33:57;;;;;;;;;2.33;2.33;;;;;21.51;61.42;101355.44;6250553;22;47319;-85
2022/08/19 07:36:25;;;;;;;;;2.67;2.67;;;;;21.59;61.85;101366.72;6278232;22;45255;-84
2022/08/19 07:38:53;;;;;;;;;2.00;2.00;;;;;21.57;61.87;101365.03;6278465;22;45150;-85
2022/08/19 07:41:23;;;;;;;;;2.00;2.00;;;;;21.54;61.72;101355.34;6277967;22;45311;-84
2022/08/19 07:43:49;;;;;;;;;3.00;2.00;;;;;21.53;61.63;101360.75;6277601;22;45408;-84
2022/08/19 07:46:16;;;;;;;;;2.33;2.33;;;;;21.62;61.65;101370.22;6250022;22;45256;-85
2022/08/19 07:52:13;;;;;;;;;4.00;3.00;;;;;21.61;61.28;101349.72;6258815;22;45493;-86
2022/08/19 07:54:40;;;;;;;;;3.00;3.00;;;;;21.63;61.53;101350.56;6278661;22;45385;-81
2022/08/19 07:57:45;;;;;;;;;;;;;;;;;;;;;
2022/08/19 08:10:56;;;;;;;;;;;;;;;;;;;;;
2022/08/19 08:14:07;;;;;;;;;2.00;2.00;;;;;22.04;60.61;101343.47;6118278;23;68747;-88
2022/08/19 08:16:53;;;;;;;;;1.67;1.67;;;;;22.08;60.46;101353.16;6122631;23;45414;-85
2022/08/19 08:19:21;;;;;;;;;1.67;1.67;;;;;22.12;60.41;101365.47;6246483;22;46114;-82
2022/08/19 08:21:47;;;;;;;;;3.00;3.00;;;;;22.00;60.37;101357.97;6248628;22;45338;-91
2022/08/19 08:24:13;;;;;;;;;3.00;3.00;;;;;21.96;60.99;101359.88;6257009;22;44701;-88
2022/08/19 08:26:40;;;;;;;;;6.33;3.00;;;;;22.06;60.63;101376.47;6235505;22;45197;-90
2022/08/19 08:29:10;;;;;;;;;1.33;1.33;;;;;22.11;60.56;101378.97;6236437;22;46868;-84
2022/08/19 08:31:36;;;;;;;;;1.67;1.67;;;;;22.14;60.84;101384.22;6219781;22;45502;-90
2022/08/19 08:34:03;;;;;;;;;2.00;1.00;;;;;22.18;60.68;101377.75;6248023;22;45188;-89
2022/08/19 08:36:29;;;;;;;;;2.67;2.67;;;;;22.18;60.60;101369.72;6223044;22;45297;-89
2022/08/19 08:39:04;;;;;;;;;1.67;0.67;;;;;22.21;60.34;101361.56;6221362;22;47738;-88
2022/08/19 08:41:48;;;;;;;;;2.00;2.00;;;;;22.33;60.19;101373.59;6221070;22;45413;-89
2022/08/19 08:44:38;;;;;;;;;2.00;2.00;;;;;22.39;59.89;101381.38;6249431;22;45202;-89
2022/08/19 08:47:12;;;;;;;;;1.67;1.00;;;;;22.30;59.86;101371.06;6248614;22;45398;-86
2022/08/19 08:50:12;;;;;;;;;1.00;1.00;;;;;22.39;59.88;101387.63;6252822;22;45522;-93
2022/08/19 08:52:45;;;;;;;;;1.00;1.00;;;;;22.41;60.14;101377.69;6201828;22;45326;-87
2022/08/19 08:55:14;;;;;;;;;1.67;1.00;;;;;22.43;59.68;101369.59;6224703;22;45177;-91
2022/08/19 08:57:50;;;;;;;;;6.33;6.33;;;;;22.56;59.69;101386.91;6227391;22;45392;-91
2022/08/19 09:00:31;;;;;;;;;3.67;3.67;;;;;22.54;59.60;101382.53;6250699;22;47957;-91
2022/08/19 09:02:59;;;;;;;;;2.00;2.00;;;;;22.69;59.74;101389.91;6250428;22;45204;-89
2022/08/19 09:05:46;;;;;;;;;3.00;1.33;;;;;22.75;59.21;101375.34;6226220;22;45233;-92
2022/08/19 09:08:57;;;;;;;;;;;;;;;;;;;;;
2022/08/19 09:15:07;;;;;;;;;1.67;1.67;;;;;23.31;58.75;101377.31;6249762;22;45116;-91
2022/08/19 09:18:05;;;;;;;;;;;;;;;;;;;;;
2022/08/19 09:20:31;;;;;;;;;2.00;2.00;;;;;23.50;57.57;101356.66;6255730;22;71873;-93
2022/08/19 09:22:59;;;;;;;;;3.00;2.00;;;;;23.65;57.41;101371.16;6251512;22;47104;-91
2022/08/19 09:25:25;;;;;;;;;2.00;2.00;;;;;23.75;57.21;101385.09;6226096;22;45054;-91
2022/08/19 09:32:08;;;;;;;;;2.00;2.00;;;;;23.72;56.88;101358.34;6252957;22;45260;-92
2022/08/19 09:34:15;;;;;;;;;1.00;1.00;;;;;23.86;56.77;101357.66;6237376;22;45582;-93
2022/08/19 09:36:40;;;;;;;;;2.00;2.00;;;;;23.93;56.06;101354.59;6252101;22;44845;-91
2022/08/19 09:39:06;;;;;;;;;2.00;2.00;;;;;24.02;56.09;101358.63;6251709;22;45166;-89
2022/08/19 09:41:32;;;;;;;;;1.00;1.00;;;;;24.14;55.65;101373.31;6253224;22;45856;-90
2022/08/19 09:43:58;;;;;;;;;1.00;1.00;;;;;24.11;55.46;101368.06;6224299;22;48096;-87
2022/08/19 09:46:28;;;;;;;;;3.00;3.00;;;;;24.21;55.68;101374.72;6222887;22;45308;-87
2022/08/19 09:48:55;;;;;;;;;1.00;0.67;;;;;24.37;55.66;101378.38;6253052;22;45145;-90
2022/08/19 09:51:23;;;;;;;;;1.00;1.00;;;;;24.46;55.44;101373.50;6224394;22;45532;-87
2022/08/19 09:53:50;;;;;;;;;2.00;1.00;;;;;24.56;54.70;101372.94;6248434;22;47012;-88
2022/08/19 09:56:18;;;;;;;;;5.00;3.00;;;;;24.56;54.76;101370.25;6251135;22;45188;-87
2022/08/19 09:58:44;;;;;;;;;2.00;1.67;;;;;24.57;54.55;101379.22;6251404;22;45246;-90
2022/08/19 10:01:19;;;;;;;;;1.00;1.00;;;;;24.49;54.64;101371.53;6231136;22;45295;-88
2022/08/19 10:03:52;;;;;;;;;2.00;2.00;;;;;24.62;54.70;101375.31;6281277;22;45398;-92
2022/08/19 10:06:18;;;;;;;;;2.00;2.00;;;;;24.72;54.26;101369.44;6255459;22;45156;-85
2022/08/19 10:08:44;;;;;;;;;1.33;1.33;;;;;24.83;54.17;101358.97;6282594;22;45121;-87
2022/08/19 10:11:15;;;;;;;;;3.33;2.00;;;;;25.02;53.67;101373.19;6282336;22;45382;-89
2022/08/19 10:13:42;;;;;;;;;2.00;2.00;;;;;25.13;53.31;101374.41;6253261;22;46949;-89
2022/08/19 10:16:13;;;;;;;;;1.00;1.00;;;;;25.14;53.42;101363.56;6281547;22;45265;-87
2022/08/19 10:18:42;;;;;;;;;1.00;1.00;;;;;25.24;53.34;101361.28;6252165;22;45378;-90
2022/08/19 10:21:13;;;;;;;;;1.67;1.67;;;;;25.36;53.08;101367.81;6277424;22;46018;-91
2022/08/19 10:23:44;;;;;;;;;2.33;2.33;;;;;25.43;52.46;101364.69;6251575;22;47979;-87
2022/08/19 10:26:10;;;;;;;;;1.00;1.00;;;;;25.63;52.79;101359.97;6252455;22;45448;-89
2022/08/19 10:28:39;;;;;;;;;1.00;1.00;;;;;25.77;52.19;101353.78;6252264;22;45382;-89
2022/08/19 10:31:07;;;;;;;;;2.00;2.00;;;;;25.96;51.72;101363.47;6251667;22;45938;-94
2022/08/19 10:33:34;;;;;;;;;1.00;1.00;;;;;26.05;51.88;101350.41;6251673;22;46897;-90
2022/08/19 10:36:04;;;;;;;;;1.67;1.67;;;;;26.20;51.35;101354.91;6252005;22;45413;-91
2022/08/19 10:38:29;;;;;;;;;3.33;0.67;;;;;26.15;51.21;101340.81;6250789;22;45272;-87
2022/08/19 10:40:55;;;;;;;;;5.33;5.33;;;;;26.27;51.20;101353.53;6251601;22;45190;-89
2022/08/19 10:43:20;;;;;;;;;2.00;2.00;;;;;26.29;50.91;101359.72;6251786;22;47993;-90
2022/08/19 10:45:58;;;;;;;;;1.00;1.00;;;;;26.28;50.82;101352.59;6283106;22;45212;-91
2022/08/19 10:48:23;;;;;;;;;1.00;1.00;;;;;26.32;50.31;101354.13;6255883;22;45158;-91
2022/08/19 10:53:33;;;;;;;;;3.00;3.00;;;;;26.21;50.20;101353.91;6291479;22;45153;-92
2022/08/19 10:58:42;;;;;;;;;2.00;1.00;;;;;25.96;50.19;101355.38;6279534;22;45279;-89
2022/08/19 11:01:08;;;;;;;;;1.00;1.00;;;;;25.88;50.90;101354.97;6269673;22;45624;-92
2022/08/19 11:03:33;;;;;;;;;1.00;1.00;;;;;25.73;50.58;101334.22;6245898;22;48235;-87
2022/08/19 11:06:06;;;;;;;;;2.67;2.67;;;;;25.64;50.94;101337.47;6220652;22;45253;-89
2022/08/19 11:08:32;;;;;;;;;1.00;1.00;;;;;25.60;51.15;101342.16;6247554;22;45271;-91
2022/08/19 11:11:00;;;;;;;;;3.00;3.00;;;;;25.57;51.02;101357.63;6248613;22;45171;-90
2022/08/19 11:13:31;;;;;;;;;4.67;2.00;;;;;25.56;51.16;101347.81;6246488;22;47272;-88
2022/08/19 11:16:03;;;;;;;;;1.00;1.00;;;;;25.49;51.13;101347.28;6245837;22;45505;-90
2022/08/19 11:18:28;;;;;;;;;2.00;2.00;;;;;25.52;51.38;101352.50;6221127;22;45225;-88
2022/08/19 11:20:54;;;;;;;;;3.00;3.00;;;;;25.50;51.86;101349.00;6220146;22;45224;-89
2022/08/19 11:23:19;;;;;;;;;2.67;2.00;;;;;25.43;51.69;101343.13;6249104;22;45154;-88
2022/08/19 11:25:45;;;;;;;;;3.67;2.33;;;;;25.38;51.67;101347.03;6221523;22;45190;-88
2022/08/19 11:28:11;;;;;;;;;3.00;3.00;;;;;25.28;51.63;101335.88;6246993;22;45213;-87
2022/08/19 11:30:38;;;;;;;;;1.33;1.33;;;;;25.22;51.81;101344.31;6248383;22;45154;-87
2022/08/19 11:33:03;;;;;;;;;1.00;1.00;;;;;25.23;51.55;101346.94;6221977;22;47263;-91
2022/08/19 11:35:33;;;;;;;;;1.00;1.00;;;;;25.07;51.87;101332.50;6248006;22;45232;-92
2022/08/19 11:38:01;;;;;;;;;1.67;1.00;;;;;25.07;52.25;101344.19;6249229;22;45401;-92
2022/08/19 11:40:27;;;;;;;;;0.33;0.33;;;;;24.95;51.98;101334.06;6224671;22;45621;-95
2022/08/19 11:42:55;;;;;;;;;1.33;1.00;;;;;24.95;52.27;101335.91;6247012;22;47005;-94
2022/08/19 11:45:26;;;;;;;;;1.00;1.00;;;;;24.92;51.95;101341.47;6221807;22;45390;-95
2022/08/19 11:47:52;;;;;;;;;2.00;2.00;;;;;24.96;52.30;101343.00;6226108;22;45182;-92
2022/08/19 11:50:18;;;;;;;;;3.00;2.00;;;;;24.86;51.79;101339.97;6221150;22;45762;-92
2022/08/19 11:52:44;;;;;;;;;3.00;3.00;;;;;24.82;52.15;101333.00;6246713;22;47163;-91
2022/08/19 11:55:10;;;;;;;;;1.00;1.00;;;;;24.90;52.71;101356.81;6248136;22;45346;-89
2022/08/19 11:57:36;;;;;;;;;1.00;1.00;;;;;24.84;52.25;101342.72;6245706;22;45258;-91
2022/08/19 12:00:04;;;;;;;;;2.00;2.00;;;;;24.93;52.18;101360.22;6221271;22;45560;-89
2022/08/19 12:02:29;;;;;;;;;1.33;1.33;;;;;24.92;52.33;101355.78;6269833;22;47822;-93
2022/08/19 12:05:05;;;;;;;;;1.67;1.67;;;;;24.93;52.29;101357.53;6277119;22;45488;-82
2022/08/19 12:07:33;;;;;;;;;2.67;2.00;;;;;24.91;52.06;101350.47;6279998;22;45254;-93